sensor_id;sensor_type;location;lat;lon;timestamp;P1;durP1;ratioP1;P2;durP2;ratioP2
62123;SDS011;48110;47.532;19.078;2023-07-31T00:00:32;5.03;;;2.80;;
62123;SDS011;48110;47.532;19.078;2023-07-31T00:03:35;3.90;;;2.85;;
62123;SDS011;48110;47.532;19.078;2023-07-31T00:06:38;4.40;;;2.58;;
62123;SDS011;48110;47.532;19.078;2023-07-31T00:09:41;4.50;;;2.70;;
62123;SDS011;48110;47.532;19.078;2023-07-31T00:12:44;3.47;;;2.40;;
62123;SDS011;48110;47.532;19.078;2023-07-31T00:15:47;2.78;;;2.50;;
62123;SDS011;48110;47.532;19.078;2023-07-31T00:18:50;3.90;;;2.30;;
62123;SDS011;48110;47.532;19.078;2023-07-31T00:21:53;2.95;;;2.30;;
62123;SDS011;48110;47.532;19.078;2023-07-31T00:24:56;4.15;;;2.15;;
62123;SDS011;48110;47.532;19.078;2023-07-31T00:27:59;3.65;;;2.20;;
62123;SDS011;48110;47.532;19.078;2023-07-31T00:31:02;5.78;;;2.37;;
62123;SDS011;48110;47.532;19.078;2023-07-31T00:34:05;3.80;;;2.62;;
62123;SDS011;48110;47.532;19.078;2023-07-31T00:37:09;2.25;;;2.05;;
62123;SDS011;48110;47.532;19.078;2023-07-31T00:40:12;3.92;;;2.53;;
62123;SDS011;48110;47.532;19.078;2023-07-31T00:43:16;3.75;;;2.60;;
62123;SDS011;48110;47.532;19.078;2023-07-31T00:46:19;5.53;;;2.70;;
62123;SDS011;48110;47.532;19.078;2023-07-31T00:49:22;2.95;;;2.60;;
62123;SDS011;48110;47.532;19.078;2023-07-31T00:52:25;5.12;;;2.90;;
62123;SDS011;48110;47.532;19.078;2023-07-31T00:55:28;5.55;;;2.80;;
62123;SDS011;48110;47.532;19.078;2023-07-31T00:58:32;5.12;;;2.55;;
62123;SDS011;48110;47.532;19.078;2023-07-31T01:01:35;4.07;;;2.78;;
62123;SDS011;48110;47.532;19.078;2023-07-31T01:04:38;4.55;;;2.80;;
62123;SDS011;48110;47.532;19.078;2023-07-31T01:14:22;4.67;;;3.00;;
62123;SDS011;48110;47.532;19.078;2023-07-31T01:17:24;6.43;;;3.47;;
62123;SDS011;48110;47.532;19.078;2023-07-31T01:20:27;4.10;;;2.85;;
62123;SDS011;48110;47.532;19.078;2023-07-31T01:26:57;6.05;;;3.40;;
62123;SDS011;48110;47.532;19.078;2023-07-31T01:30:11;5.70;;;3.60;;
62123;SDS011;48110;47.532;19.078;2023-07-31T01:33:19;6.75;;;4.10;;
62123;SDS011;48110;47.532;19.078;2023-07-31T01:36:22;4.97;;;4.00;;
62123;SDS011;48110;47.532;19.078;2023-07-31T01:39:25;4.53;;;4.03;;
62123;SDS011;48110;47.532;19.078;2023-07-31T01:42:28;6.57;;;4.43;;
62123;SDS011;48110;47.532;19.078;2023-07-31T01:45:31;6.50;;;4.40;;
62123;SDS011;48110;47.532;19.078;2023-07-31T01:48:34;5.87;;;4.50;;
62123;SDS011;48110;47.532;19.078;2023-07-31T01:51:38;7.22;;;4.68;;
62123;SDS011;48110;47.532;19.078;2023-07-31T01:54:42;5.20;;;4.70;;
62123;SDS011;48110;47.532;19.078;2023-07-31T01:57:45;6.07;;;4.55;;
62123;SDS011;48110;47.532;19.078;2023-07-31T02:00:48;6.72;;;4.45;;
62123;SDS011;48110;47.532;19.078;2023-07-31T02:03:50;5.72;;;4.82;;
62123;SDS011;48110;47.532;19.078;2023-07-31T02:06:53;7.15;;;4.80;;
62123;SDS011;48110;47.532;19.078;2023-07-31T02:09:56;8.32;;;4.72;;
62123;SDS011;48110;47.532;19.078;2023-07-31T02:12:59;7.85;;;5.15;;
62123;SDS011;48110;47.532;19.078;2023-07-31T02:16:02;5.75;;;4.82;;
62123;SDS011;48110;47.532;19.078;2023-07-31T02:19:04;5.47;;;4.40;;
62123;SDS011;48110;47.532;19.078;2023-07-31T02:22:07;5.78;;;4.65;;
62123;SDS011;48110;47.532;19.078;2023-07-31T02:25:10;6.22;;;4.37;;
62123;SDS011;48110;47.532;19.078;2023-07-31T02:28:12;6.20;;;4.15;;
62123;SDS011;48110;47.532;19.078;2023-07-31T02:31:15;6.10;;;3.97;;
62123;SDS011;48110;47.532;19.078;2023-07-31T02:34:21;7.30;;;3.72;;
62123;SDS011;48110;47.532;19.078;2023-07-31T02:37:23;7.68;;;4.10;;
62123;SDS011;48110;47.532;19.078;2023-07-31T02:40:27;5.85;;;3.45;;
62123;SDS011;48110;47.532;19.078;2023-07-31T02:43:30;4.53;;;3.58;;
62123;SDS011;48110;47.532;19.078;2023-07-31T02:46:32;4.95;;;3.50;;
62123;SDS011;48110;47.532;19.078;2023-07-31T02:49:35;3.62;;;3.08;;
62123;SDS011;48110;47.532;19.078;2023-07-31T02:52:38;6.72;;;3.40;;
62123;SDS011;48110;47.532;19.078;2023-07-31T02:55:40;5.15;;;3.45;;
62123;SDS011;48110;47.532;19.078;2023-07-31T02:58:43;5.68;;;3.40;;
62123;SDS011;48110;47.532;19.078;2023-07-31T03:01:46;5.60;;;3.40;;
62123;SDS011;48110;47.532;19.078;2023-07-31T03:04:49;5.78;;;3.78;;
62123;SDS011;48110;47.532;19.078;2023-07-31T03:07:52;4.90;;;3.80;;
62123;SDS011;48110;47.532;19.078;2023-07-31T03:10:54;5.07;;;3.42;;
62123;SDS011;48110;47.532;19.078;2023-07-31T03:13:58;4.78;;;3.42;;
62123;SDS011;48110;47.532;19.078;2023-07-31T03:17:01;8.15;;;3.35;;
62123;SDS011;48110;47.532;19.078;2023-07-31T03:20:04;4.87;;;3.55;;
62123;SDS011;48110;47.532;19.078;2023-07-31T03:23:07;7.40;;;3.80;;
62123;SDS011;48110;47.532;19.078;2023-07-31T03:26:10;4.07;;;3.60;;
62123;SDS011;48110;47.532;19.078;2023-07-31T03:29:12;7.93;;;3.83;;
62123;SDS011;48110;47.532;19.078;2023-07-31T03:32:15;5.50;;;3.45;;
62123;SDS011;48110;47.532;19.078;2023-07-31T03:35:18;8.73;;;3.33;;
62123;SDS011;48110;47.532;19.078;2023-07-31T03:38:21;5.72;;;3.60;;
62123;SDS011;48110;47.532;19.078;2023-07-31T03:41:24;8.52;;;3.25;;
62123;SDS011;48110;47.532;19.078;2023-07-31T03:44:27;6.00;;;3.10;;
62123;SDS011;48110;47.532;19.078;2023-07-31T03:47:29;5.43;;;3.22;;
62123;SDS011;48110;47.532;19.078;2023-07-31T03:50:32;8.23;;;3.50;;
62123;SDS011;48110;47.532;19.078;2023-07-31T03:53:35;4.00;;;2.75;;
62123;SDS011;48110;47.532;19.078;2023-07-31T03:56:38;5.28;;;2.90;;
62123;SDS011;48110;47.532;19.078;2023-07-31T03:59:41;5.15;;;2.87;;
62123;SDS011;48110;47.532;19.078;2023-07-31T04:02:44;5.40;;;2.70;;
62123;SDS011;48110;47.532;19.078;2023-07-31T04:05:47;4.97;;;2.78;;
62123;SDS011;48110;47.532;19.078;2023-07-31T04:08:50;6.82;;;2.45;;
62123;SDS011;48110;47.532;19.078;2023-07-31T04:11:53;3.28;;;2.60;;
62123;SDS011;48110;47.532;19.078;2023-07-31T04:14:55;6.12;;;2.55;;
62123;SDS011;48110;47.532;19.078;2023-07-31T04:17:58;3.70;;;2.60;;
62123;SDS011;48110;47.532;19.078;2023-07-31T04:21:00;3.25;;;2.35;;
62123;SDS011;48110;47.532;19.078;2023-07-31T04:24:04;3.12;;;1.92;;
62123;SDS011;48110;47.532;19.078;2023-07-31T04:27:07;4.20;;;2.28;;
62123;SDS011;48110;47.532;19.078;2023-07-31T04:30:10;3.90;;;2.15;;
62123;SDS011;48110;47.532;19.078;2023-07-31T04:33:13;6.28;;;2.20;;
62123;SDS011;48110;47.532;19.078;2023-07-31T04:36:16;2.78;;;2.12;;
62123;SDS011;48110;47.532;19.078;2023-07-31T04:39:18;4.90;;;2.22;;
62123;SDS011;48110;47.532;19.078;2023-07-31T04:42:21;5.25;;;2.40;;
62123;SDS011;48110;47.532;19.078;2023-07-31T04:45:24;4.53;;;2.30;;
62123;SDS011;48110;47.532;19.078;2023-07-31T04:48:27;3.50;;;2.40;;
62123;SDS011;48110;47.532;19.078;2023-07-31T04:51:29;3.20;;;2.00;;
62123;SDS011;48110;47.532;19.078;2023-07-31T04:54:32;4.40;;;2.03;;
62123;SDS011;48110;47.532;19.078;2023-07-31T04:57:35;3.00;;;2.00;;
62123;SDS011;48110;47.532;19.078;2023-07-31T05:00:38;3.83;;;2.22;;
62123;SDS011;48110;47.532;19.078;2023-07-31T05:03:40;5.30;;;2.12;;
62123;SDS011;48110;47.532;19.078;2023-07-31T05:06:43;3.65;;;2.22;;
62123;SDS011;48110;47.532;19.078;2023-07-31T05:09:46;3.33;;;1.90;;
62123;SDS011;48110;47.532;19.078;2023-07-31T05:12:49;9.20;;;2.17;;
62123;SDS011;48110;47.532;19.078;2023-07-31T05:15:51;3.03;;;2.20;;
62123;SDS011;48110;47.532;19.078;2023-07-31T05:18:54;5.10;;;1.90;;
62123;SDS011;48110;47.532;19.078;2023-07-31T05:21:57;6.35;;;2.08;;
62123;SDS011;48110;47.532;19.078;2023-07-31T05:25:00;3.17;;;1.70;;
62123;SDS011;48110;47.532;19.078;2023-07-31T05:28:03;3.70;;;1.90;;
62123;SDS011;48110;47.532;19.078;2023-07-31T05:31:06;4.35;;;1.75;;
62123;SDS011;48110;47.532;19.078;2023-07-31T05:34:09;3.97;;;2.00;;
62123;SDS011;48110;47.532;19.078;2023-07-31T05:37:12;3.40;;;1.60;;
62123;SDS011;48110;47.532;19.078;2023-07-31T05:40:14;8.52;;;1.90;;
62123;SDS011;48110;47.532;19.078;2023-07-31T05:43:17;4.72;;;1.70;;
62123;SDS011;48110;47.532;19.078;2023-07-31T05:46:20;3.92;;;1.70;;
62123;SDS011;48110;47.532;19.078;2023-07-31T05:49:23;3.28;;;1.70;;
62123;SDS011;48110;47.532;19.078;2023-07-31T05:52:25;4.62;;;1.60;;
62123;SDS011;48110;47.532;19.078;2023-07-31T05:55:28;4.82;;;2.00;;
62123;SDS011;48110;47.532;19.078;2023-07-31T05:58:31;3.75;;;1.83;;
62123;SDS011;48110;47.532;19.078;2023-07-31T06:01:33;3.50;;;1.62;;
62123;SDS011;48110;47.532;19.078;2023-07-31T06:04:36;3.37;;;1.77;;
62123;SDS011;48110;47.532;19.078;2023-07-31T06:07:40;5.18;;;1.60;;
62123;SDS011;48110;47.532;19.078;2023-07-31T06:10:43;4.85;;;1.90;;
62123;SDS011;48110;47.532;19.078;2023-07-31T06:13:45;5.10;;;1.80;;
62123;SDS011;48110;47.532;19.078;2023-07-31T06:16:50;4.55;;;1.60;;
62123;SDS011;48110;47.532;19.078;2023-07-31T06:19:53;8.43;;;2.00;;
62123;SDS011;48110;47.532;19.078;2023-07-31T06:22:56;4.50;;;1.73;;
62123;SDS011;48110;47.532;19.078;2023-07-31T06:25:58;3.37;;;1.40;;
62123;SDS011;48110;47.532;19.078;2023-07-31T06:29:01;4.87;;;1.50;;
62123;SDS011;48110;47.532;19.078;2023-07-31T06:32:04;2.85;;;1.52;;
62123;SDS011;48110;47.532;19.078;2023-07-31T06:35:07;5.15;;;1.60;;
62123;SDS011;48110;47.532;19.078;2023-07-31T06:38:10;4.43;;;1.55;;
62123;SDS011;48110;47.532;19.078;2023-07-31T06:41:13;5.28;;;1.52;;
62123;SDS011;48110;47.532;19.078;2023-07-31T06:44:16;3.08;;;1.67;;
62123;SDS011;48110;47.532;19.078;2023-07-31T06:47:18;2.28;;;1.60;;
62123;SDS011;48110;47.532;19.078;2023-07-31T06:50:21;5.30;;;1.90;;
62123;SDS011;48110;47.532;19.078;2023-07-31T06:53:24;4.87;;;2.00;;
62123;SDS011;48110;47.532;19.078;2023-07-31T06:56:27;3.15;;;1.60;;
62123;SDS011;48110;47.532;19.078;2023-07-31T06:59:30;5.57;;;1.75;;
62123;SDS011;48110;47.532;19.078;2023-07-31T07:02:32;8.13;;;1.73;;
62123;SDS011;48110;47.532;19.078;2023-07-31T07:05:35;6.00;;;1.60;;
62123;SDS011;48110;47.532;19.078;2023-07-31T07:08:38;4.93;;;1.92;;
62123;SDS011;48110;47.532;19.078;2023-07-31T07:11:41;6.28;;;1.60;;
62123;SDS011;48110;47.532;19.078;2023-07-31T07:14:44;4.62;;;1.85;;
62123;SDS011;48110;47.532;19.078;2023-07-31T07:17:50;7.32;;;2.10;;
62123;SDS011;48110;47.532;19.078;2023-07-31T07:20:53;4.87;;;1.83;;
62123;SDS011;48110;47.532;19.078;2023-07-31T07:23:56;6.95;;;1.83;;
62123;SDS011;48110;47.532;19.078;2023-07-31T07:26:59;4.03;;;1.80;;
62123;SDS011;48110;47.532;19.078;2023-07-31T07:30:02;5.45;;;1.85;;
62123;SDS011;48110;47.532;19.078;2023-07-31T07:33:06;5.37;;;1.60;;
62123;SDS011;48110;47.532;19.078;2023-07-31T07:36:09;4.05;;;1.60;;
62123;SDS011;48110;47.532;19.078;2023-07-31T07:39:12;4.00;;;1.65;;
62123;SDS011;48110;47.532;19.078;2023-07-31T07:42:15;6.12;;;1.80;;
62123;SDS011;48110;47.532;19.078;2023-07-31T07:45:17;5.78;;;1.50;;
62123;SDS011;48110;47.532;19.078;2023-07-31T07:48:21;5.28;;;1.60;;
62123;SDS011;48110;47.532;19.078;2023-07-31T07:51:24;3.95;;;1.80;;
62123;SDS011;48110;47.532;19.078;2023-07-31T07:54:27;10.60;;;1.95;;
62123;SDS011;48110;47.532;19.078;2023-07-31T07:57:30;3.40;;;1.50;;
62123;SDS011;48110;47.532;19.078;2023-07-31T08:00:33;6.50;;;1.80;;
62123;SDS011;48110;47.532;19.078;2023-07-31T08:03:36;4.78;;;1.60;;
62123;SDS011;48110;47.532;19.078;2023-07-31T08:06:39;6.50;;;1.40;;
62123;SDS011;48110;47.532;19.078;2023-07-31T08:09:43;5.85;;;1.58;;
62123;SDS011;48110;47.532;19.078;2023-07-31T08:12:45;5.37;;;1.42;;
62123;SDS011;48110;47.532;19.078;2023-07-31T08:15:48;7.22;;;1.50;;
62123;SDS011;48110;47.532;19.078;2023-07-31T08:18:51;3.75;;;1.40;;
62123;SDS011;48110;47.532;19.078;2023-07-31T08:21:54;6.03;;;1.48;;
62123;SDS011;48110;47.532;19.078;2023-07-31T08:24:59;7.57;;;1.80;;
62123;SDS011;48110;47.532;19.078;2023-07-31T08:28:03;7.18;;;1.50;;
62123;SDS011;48110;47.532;19.078;2023-07-31T08:31:07;4.25;;;1.60;;
62123;SDS011;48110;47.532;19.078;2023-07-31T08:34:10;3.12;;;1.40;;
62123;SDS011;48110;47.532;19.078;2023-07-31T08:37:12;5.93;;;1.50;;
62123;SDS011;48110;47.532;19.078;2023-07-31T08:40:15;6.10;;;1.30;;
62123;SDS011;48110;47.532;19.078;2023-07-31T08:43:18;5.45;;;1.37;;
62123;SDS011;48110;47.532;19.078;2023-07-31T08:46:22;5.18;;;1.40;;
62123;SDS011;48110;47.532;19.078;2023-07-31T08:49:27;5.15;;;1.42;;
62123;SDS011;48110;47.532;19.078;2023-07-31T08:52:30;2.55;;;1.30;;
62123;SDS011;48110;47.532;19.078;2023-07-31T08:55:32;4.22;;;1.35;;
62123;SDS011;48110;47.532;19.078;2023-07-31T08:58:36;8.18;;;1.65;;
62123;SDS011;48110;47.532;19.078;2023-07-31T09:01:41;6.30;;;1.40;;
62123;SDS011;48110;47.532;19.078;2023-07-31T09:04:51;8.45;;;1.70;;
62123;SDS011;48110;47.532;19.078;2023-07-31T09:07:53;5.35;;;1.48;;
62123;SDS011;48110;47.532;19.078;2023-07-31T09:11:01;5.40;;;1.40;;
62123;SDS011;48110;47.532;19.078;2023-07-31T09:14:08;4.78;;;1.58;;
62123;SDS011;48110;47.532;19.078;2023-07-31T09:17:11;8.52;;;1.87;;
62123;SDS011;48110;47.532;19.078;2023-07-31T09:20:20;4.82;;;1.55;;
62123;SDS011;48110;47.532;19.078;2023-07-31T09:23:23;4.40;;;1.50;;
62123;SDS011;48110;47.532;19.078;2023-07-31T09:29:33;5.05;;;1.77;;
62123;SDS011;48110;47.532;19.078;2023-07-31T09:32:35;7.22;;;1.70;;
62123;SDS011;48110;47.532;19.078;2023-07-31T09:35:40;4.55;;;1.65;;
62123;SDS011;48110;47.532;19.078;2023-07-31T09:38:43;6.18;;;1.42;;
62123;SDS011;48110;47.532;19.078;2023-07-31T09:41:53;4.22;;;1.50;;
62123;SDS011;48110;47.532;19.078;2023-07-31T09:45:06;7.95;;;1.65;;
62123;SDS011;48110;47.532;19.078;2023-07-31T09:48:12;7.32;;;1.40;;
62123;SDS011;48110;47.532;19.078;2023-07-31T09:51:25;7.45;;;1.35;;
62123;SDS011;48110;47.532;19.078;2023-07-31T09:54:29;3.97;;;1.62;;
62123;SDS011;48110;47.532;19.078;2023-07-31T09:57:32;3.28;;;1.30;;
62123;SDS011;48110;47.532;19.078;2023-07-31T10:00:36;2.92;;;1.27;;
62123;SDS011;48110;47.532;19.078;2023-07-31T10:03:40;4.28;;;1.50;;
62123;SDS011;48110;47.532;19.078;2023-07-31T10:06:48;5.13;;;1.50;;
62123;SDS011;48110;47.532;19.078;2023-07-31T10:09:53;5.78;;;1.40;;
62123;SDS011;48110;47.532;19.078;2023-07-31T10:12:57;3.42;;;1.40;;
62123;SDS011;48110;47.532;19.078;2023-07-31T10:16:01;5.20;;;1.33;;
62123;SDS011;48110;47.532;19.078;2023-07-31T10:19:05;4.68;;;1.30;;
62123;SDS011;48110;47.532;19.078;2023-07-31T10:22:08;6.12;;;1.30;;
62123;SDS011;48110;47.532;19.078;2023-07-31T10:25:15;3.92;;;1.40;;
62123;SDS011;48110;47.532;19.078;2023-07-31T10:28:20;5.05;;;1.40;;
62123;SDS011;48110;47.532;19.078;2023-07-31T10:31:23;7.55;;;1.25;;
62123;SDS011;48110;47.532;19.078;2023-07-31T10:34:27;8.00;;;1.52;;
62123;SDS011;48110;47.532;19.078;2023-07-31T10:37:40;3.58;;;1.40;;
62123;SDS011;48110;47.532;19.078;2023-07-31T10:40:46;4.15;;;1.37;;
62123;SDS011;48110;47.532;19.078;2023-07-31T10:43:57;10.82;;;1.48;;
62123;SDS011;48110;47.532;19.078;2023-07-31T10:47:03;5.57;;;1.62;;
62123;SDS011;48110;47.532;19.078;2023-07-31T10:50:27;4.30;;;1.37;;
62123;SDS011;48110;47.532;19.078;2023-07-31T10:53:30;6.07;;;1.50;;
62123;SDS011;48110;47.532;19.078;2023-07-31T10:56:36;5.57;;;1.70;;
62123;SDS011;48110;47.532;19.078;2023-07-31T10:59:41;4.28;;;1.70;;
62123;SDS011;48110;47.532;19.078;2023-07-31T11:02:55;5.00;;;1.40;;
62123;SDS011;48110;47.532;19.078;2023-07-31T11:06:03;6.72;;;1.33;;
62123;SDS011;48110;47.532;19.078;2023-07-31T11:09:06;5.37;;;1.30;;
62123;SDS011;48110;47.532;19.078;2023-07-31T11:12:15;6.12;;;1.67;;
62123;SDS011;48110;47.532;19.078;2023-07-31T11:15:21;9.02;;;1.52;;
62123;SDS011;48110;47.532;19.078;2023-07-31T11:18:24;9.30;;;1.55;;
62123;SDS011;48110;47.532;19.078;2023-07-31T11:21:29;4.47;;;1.50;;
62123;SDS011;48110;47.532;19.078;2023-07-31T11:24:32;4.55;;;1.30;;
62123;SDS011;48110;47.532;19.078;2023-07-31T11:27:41;13.77;;;1.73;;
62123;SDS011;48110;47.532;19.078;2023-07-31T11:30:44;9.77;;;1.98;;
62123;SDS011;48110;47.532;19.078;2023-07-31T11:33:48;5.12;;;1.40;;
62123;SDS011;48110;47.532;19.078;2023-07-31T11:36:54;4.12;;;1.25;;
62123;SDS011;48110;47.532;19.078;2023-07-31T11:39:58;3.72;;;1.15;;
62123;SDS011;48110;47.532;19.078;2023-07-31T11:43:04;5.47;;;1.70;;
62123;SDS011;48110;47.532;19.078;2023-07-31T11:46:07;4.90;;;1.17;;
62123;SDS011;48110;47.532;19.078;2023-07-31T11:49:10;3.28;;;1.27;;
62123;SDS011;48110;47.532;19.078;2023-07-31T11:52:13;7.75;;;1.50;;
62123;SDS011;48110;47.532;19.078;2023-07-31T11:55:16;5.30;;;1.25;;
62123;SDS011;48110;47.532;19.078;2023-07-31T11:58:20;7.10;;;1.40;;
62123;SDS011;48110;47.532;19.078;2023-07-31T12:01:26;6.25;;;1.12;;
62123;SDS011;48110;47.532;19.078;2023-07-31T12:04:32;2.65;;;1.20;;
62123;SDS011;48110;47.532;19.078;2023-07-31T12:07:51;7.28;;;1.60;;
62123;SDS011;48110;47.532;19.078;2023-07-31T12:11:02;6.03;;;1.73;;
62123;SDS011;48110;47.532;19.078;2023-07-31T12:14:06;8.27;;;1.50;;
62123;SDS011;48110;47.532;19.078;2023-07-31T12:17:09;2.55;;;1.25;;
62123;SDS011;48110;47.532;19.078;2023-07-31T12:20:11;2.80;;;1.20;;
62123;SDS011;48110;47.532;19.078;2023-07-31T12:23:17;4.40;;;1.50;;
62123;SDS011;48110;47.532;19.078;2023-07-31T12:26:34;3.37;;;1.40;;
62123;SDS011;48110;47.532;19.078;2023-07-31T12:29:37;3.70;;;1.25;;
62123;SDS011;48110;47.532;19.078;2023-07-31T12:32:43;3.12;;;1.23;;
62123;SDS011;48110;47.532;19.078;2023-07-31T12:35:48;4.32;;;1.30;;
62123;SDS011;48110;47.532;19.078;2023-07-31T12:38:54;6.20;;;1.23;;
62123;SDS011;48110;47.532;19.078;2023-07-31T12:41:59;3.30;;;1.27;;
62123;SDS011;48110;47.532;19.078;2023-07-31T12:45:02;5.45;;;1.35;;
62123;SDS011;48110;47.532;19.078;2023-07-31T12:48:06;3.17;;;1.23;;
62123;SDS011;48110;47.532;19.078;2023-07-31T12:51:09;3.35;;;1.12;;
62123;SDS011;48110;47.532;19.078;2023-07-31T12:54:12;5.45;;;1.73;;
62123;SDS011;48110;47.532;19.078;2023-07-31T12:57:14;6.55;;;1.12;;
62123;SDS011;48110;47.532;19.078;2023-07-31T13:00:21;4.45;;;1.40;;
62123;SDS011;48110;47.532;19.078;2023-07-31T13:03:24;7.72;;;1.27;;
62123;SDS011;48110;47.532;19.078;2023-07-31T13:06:27;2.62;;;1.30;;
62123;SDS011;48110;47.532;19.078;2023-07-31T13:09:29;4.30;;;1.33;;
62123;SDS011;48110;47.532;19.078;2023-07-31T13:12:32;4.80;;;1.55;;
62123;SDS011;48110;47.532;19.078;2023-07-31T13:15:35;2.97;;;1.20;;
62123;SDS011;48110;47.532;19.078;2023-07-31T13:18:40;7.53;;;1.80;;
62123;SDS011;48110;47.532;19.078;2023-07-31T13:21:42;3.80;;;1.58;;
62123;SDS011;48110;47.532;19.078;2023-07-31T13:24:45;6.80;;;1.30;;
62123;SDS011;48110;47.532;19.078;2023-07-31T13:27:48;7.62;;;1.40;;
62123;SDS011;48110;47.532;19.078;2023-07-31T13:30:51;4.68;;;1.30;;
62123;SDS011;48110;47.532;19.078;2023-07-31T13:33:53;11.65;;;1.83;;
62123;SDS011;48110;47.532;19.078;2023-07-31T13:36:56;5.12;;;1.15;;
62123;SDS011;48110;47.532;19.078;2023-07-31T13:39:59;8.55;;;1.40;;
62123;SDS011;48110;47.532;19.078;2023-07-31T13:43:02;4.37;;;1.37;;
62123;SDS011;48110;47.532;19.078;2023-07-31T13:46:06;5.03;;;1.33;;
62123;SDS011;48110;47.532;19.078;2023-07-31T13:49:10;6.35;;;1.40;;
62123;SDS011;48110;47.532;19.078;2023-07-31T13:52:12;4.07;;;1.30;;
62123;SDS011;48110;47.532;19.078;2023-07-31T13:55:15;5.12;;;1.25;;
62123;SDS011;48110;47.532;19.078;2023-07-31T13:58:18;5.22;;;1.30;;
62123;SDS011;48110;47.532;19.078;2023-07-31T14:01:21;4.70;;;1.50;;
62123;SDS011;48110;47.532;19.078;2023-07-31T14:04:24;3.85;;;1.33;;
62123;SDS011;48110;47.532;19.078;2023-07-31T14:07:26;3.00;;;1.30;;
62123;SDS011;48110;47.532;19.078;2023-07-31T14:10:29;4.85;;;1.30;;
62123;SDS011;48110;47.532;19.078;2023-07-31T14:13:32;4.75;;;1.12;;
62123;SDS011;48110;47.532;19.078;2023-07-31T14:16:35;4.40;;;1.50;;
62123;SDS011;48110;47.532;19.078;2023-07-31T14:19:38;6.20;;;1.25;;
62123;SDS011;48110;47.532;19.078;2023-07-31T14:22:41;2.05;;;1.15;;
62123;SDS011;48110;47.532;19.078;2023-07-31T14:25:46;3.08;;;1.10;;
62123;SDS011;48110;47.532;19.078;2023-07-31T14:28:49;4.18;;;1.25;;
62123;SDS011;48110;47.532;19.078;2023-07-31T14:31:52;5.25;;;1.50;;
62123;SDS011;48110;47.532;19.078;2023-07-31T14:34:55;5.07;;;1.45;;
62123;SDS011;48110;47.532;19.078;2023-07-31T14:37:58;2.75;;;1.40;;
62123;SDS011;48110;47.532;19.078;2023-07-31T14:41:01;5.87;;;1.40;;
62123;SDS011;48110;47.532;19.078;2023-07-31T14:44:03;5.03;;;1.45;;
62123;SDS011;48110;47.532;19.078;2023-07-31T14:47:06;4.90;;;1.35;;
62123;SDS011;48110;47.532;19.078;2023-07-31T14:50:09;5.15;;;1.20;;
62123;SDS011;48110;47.532;19.078;2023-07-31T14:53:12;4.22;;;1.40;;
62123;SDS011;48110;47.532;19.078;2023-07-31T14:56:15;4.25;;;1.35;;
62123;SDS011;48110;47.532;19.078;2023-07-31T14:59:18;7.05;;;1.62;;
62123;SDS011;48110;47.532;19.078;2023-07-31T15:02:20;9.98;;;1.67;;
62123;SDS011;48110;47.532;19.078;2023-07-31T15:05:24;3.05;;;1.33;;
62123;SDS011;48110;47.532;19.078;2023-07-31T15:08:27;5.60;;;1.37;;
62123;SDS011;48110;47.532;19.078;2023-07-31T15:11:29;4.15;;;1.45;;
62123;SDS011;48110;47.532;19.078;2023-07-31T15:14:32;3.85;;;1.50;;
62123;SDS011;48110;47.532;19.078;2023-07-31T15:17:37;4.37;;;1.48;;
62123;SDS011;48110;47.532;19.078;2023-07-31T15:20:39;5.15;;;1.50;;
62123;SDS011;48110;47.532;19.078;2023-07-31T15:23:42;6.90;;;1.30;;
62123;SDS011;48110;47.532;19.078;2023-07-31T15:26:45;3.05;;;1.25;;
62123;SDS011;48110;47.532;19.078;2023-07-31T15:29:49;4.00;;;1.45;;
62123;SDS011;48110;47.532;19.078;2023-07-31T15:32:53;3.15;;;1.30;;
62123;SDS011;48110;47.532;19.078;2023-07-31T15:35:57;3.42;;;1.30;;
62123;SDS011;48110;47.532;19.078;2023-07-31T15:39:00;4.57;;;1.58;;
62123;SDS011;48110;47.532;19.078;2023-07-31T15:42:02;5.90;;;1.27;;
62123;SDS011;48110;47.532;19.078;2023-07-31T15:45:06;5.82;;;1.30;;
62123;SDS011;48110;47.532;19.078;2023-07-31T15:48:10;4.85;;;1.40;;
62123;SDS011;48110;47.532;19.078;2023-07-31T15:51:13;5.93;;;1.50;;
62123;SDS011;48110;47.532;19.078;2023-07-31T15:54:16;5.65;;;1.62;;
62123;SDS011;48110;47.532;19.078;2023-07-31T15:57:19;4.40;;;1.55;;
62123;SDS011;48110;47.532;19.078;2023-07-31T16:00:22;4.22;;;1.50;;
62123;SDS011;48110;47.532;19.078;2023-07-31T16:03:25;5.62;;;1.30;;
62123;SDS011;48110;47.532;19.078;2023-07-31T16:06:27;2.55;;;1.10;;
62123;SDS011;48110;47.532;19.078;2023-07-31T16:09:30;2.83;;;1.30;;
62123;SDS011;48110;47.532;19.078;2023-07-31T16:12:33;4.00;;;1.25;;
62123;SDS011;48110;47.532;19.078;2023-07-31T16:15:37;3.85;;;1.20;;
62123;SDS011;48110;47.532;19.078;2023-07-31T16:18:40;6.47;;;1.55;;
62123;SDS011;48110;47.532;19.078;2023-07-31T16:21:43;5.80;;;1.42;;
62123;SDS011;48110;47.532;19.078;2023-07-31T16:24:45;4.72;;;1.60;;
62123;SDS011;48110;47.532;19.078;2023-07-31T16:27:48;6.10;;;1.33;;
62123;SDS011;48110;47.532;19.078;2023-07-31T16:30:51;5.80;;;1.27;;
62123;SDS011;48110;47.532;19.078;2023-07-31T16:33:54;3.08;;;1.50;;
62123;SDS011;48110;47.532;19.078;2023-07-31T16:36:57;8.18;;;1.37;;
62123;SDS011;48110;47.532;19.078;2023-07-31T16:40:00;7.80;;;1.23;;
62123;SDS011;48110;47.532;19.078;2023-07-31T16:43:03;4.78;;;1.60;;
62123;SDS011;48110;47.532;19.078;2023-07-31T16:46:06;5.70;;;1.30;;
62123;SDS011;48110;47.532;19.078;2023-07-31T16:49:08;4.53;;;1.52;;
62123;SDS011;48110;47.532;19.078;2023-07-31T16:52:12;3.42;;;1.27;;
62123;SDS011;48110;47.532;19.078;2023-07-31T16:55:14;3.83;;;1.42;;
62123;SDS011;48110;47.532;19.078;2023-07-31T16:58:17;6.18;;;1.50;;
62123;SDS011;48110;47.532;19.078;2023-07-31T17:01:20;3.92;;;1.23;;
62123;SDS011;48110;47.532;19.078;2023-07-31T17:04:23;4.00;;;1.62;;
62123;SDS011;48110;47.532;19.078;2023-07-31T17:07:26;8.77;;;1.40;;
62123;SDS011;48110;47.532;19.078;2023-07-31T17:10:28;7.28;;;1.30;;
62123;SDS011;48110;47.532;19.078;2023-07-31T17:13:31;4.10;;;1.48;;
62123;SDS011;48110;47.532;19.078;2023-07-31T17:16:34;4.87;;;1.60;;
62123;SDS011;48110;47.532;19.078;2023-07-31T17:19:37;2.85;;;1.30;;
62123;SDS011;48110;47.532;19.078;2023-07-31T17:22:40;4.20;;;1.60;;
62123;SDS011;48110;47.532;19.078;2023-07-31T17:25:50;4.97;;;1.35;;
62123;SDS011;48110;47.532;19.078;2023-07-31T17:28:53;4.25;;;1.35;;
62123;SDS011;48110;47.532;19.078;2023-07-31T17:31:56;5.82;;;1.50;;
62123;SDS011;48110;47.532;19.078;2023-07-31T17:34:59;15.73;;;3.15;;
62123;SDS011;48110;47.532;19.078;2023-07-31T17:38:02;4.82;;;1.40;;
62123;SDS011;48110;47.532;19.078;2023-07-31T17:41:05;4.80;;;1.45;;
62123;SDS011;48110;47.532;19.078;2023-07-31T17:44:07;6.03;;;1.40;;
62123;SDS011;48110;47.532;19.078;2023-07-31T17:47:10;5.65;;;1.60;;
62123;SDS011;48110;47.532;19.078;2023-07-31T17:50:14;6.03;;;1.62;;
62123;SDS011;48110;47.532;19.078;2023-07-31T17:53:16;4.22;;;1.70;;
62123;SDS011;48110;47.532;19.078;2023-07-31T17:56:19;7.35;;;1.60;;
62123;SDS011;48110;47.532;19.078;2023-07-31T17:59:22;4.12;;;1.42;;
62123;SDS011;48110;47.532;19.078;2023-07-31T18:02:25;3.47;;;1.30;;
62123;SDS011;48110;47.532;19.078;2023-07-31T18:05:28;7.28;;;1.52;;
62123;SDS011;48110;47.532;19.078;2023-07-31T18:08:30;5.75;;;1.60;;
62123;SDS011;48110;47.532;19.078;2023-07-31T18:11:33;3.95;;;1.27;;
62123;SDS011;48110;47.532;19.078;2023-07-31T18:14:36;4.35;;;1.40;;
62123;SDS011;48110;47.532;19.078;2023-07-31T18:17:40;4.32;;;1.73;;
62123;SDS011;48110;47.532;19.078;2023-07-31T18:20:43;4.80;;;1.67;;